sensor_id;sensor_type;location;lat;lon;timestamp;P1;durP1;ratioP1;P2;durP2;ratioP2
1366;SDS011;16877;48.810;9.282;2022-12-11T00:00:13;16.20;;;14.60;;
1366;SDS011;16877;48.810;9.282;2022-12-11T00:02:42;16.77;;;14.87;;
1366;SDS011;16877;48.810;9.282;2022-12-11T00:05:12;19.00;;;17.10;;
1366;SDS011;16877;48.810;9.282;2022-12-11T00:07:42;20.47;;;17.20;;
1366;SDS011;16877;48.810;9.282;2022-12-11T00:10:10;15.20;;;13.70;;
1366;SDS011;16877;48.810;9.282;2022-12-11T00:12:38;16.40;;;14.70;;
1366;SDS011;16877;48.810;9.282;2022-12-11T00:15:07;16.20;;;14.60;;
1366;SDS011;16877;48.810;9.282;2022-12-11T00:17:35;17.10;;;15.40;;
1366;SDS011;16877;48.810;9.282;2022-12-11T00:20:02;18.50;;;16.50;;
1366;SDS011;16877;48.810;9.282;2022-12-11T00:22:30;16.77;;;15.03;;
1366;SDS011;16877;48.810;9.282;2022-12-11T00:24:59;16.17;;;14.57;;
1366;SDS011;16877;48.810;9.282;2022-12-11T00:27:27;19.07;;;17.27;;
1366;SDS011;16877;48.810;9.282;2022-12-11T00:29:54;15.63;;;14.13;;
1366;SDS011;16877;48.810;9.282;2022-12-11T00:32:24;15.67;;;14.07;;
1366;SDS011;16877;48.810;9.282;2022-12-11T00:34:51;17.27;;;15.53;;
1366;SDS011;16877;48.810;9.282;2022-12-11T00:37:19;15.90;;;14.30;;
1366;SDS011;16877;48.810;9.282;2022-12-11T00:39:47;17.23;;;15.50;;
1366;SDS011;16877;48.810;9.282;2022-12-11T00:42:16;16.53;;;14.90;;
1366;SDS011;16877;48.810;9.282;2022-12-11T00:44:44;16.10;;;14.60;;
1366;SDS011;16877;48.810;9.282;2022-12-11T00:47:11;14.33;;;13.03;;
1366;SDS011;16877;48.810;9.282;2022-12-11T00:49:39;17.30;;;15.43;;
1366;SDS011;16877;48.810;9.282;2022-12-11T00:52:06;15.37;;;13.87;;
1366;SDS011;16877;48.810;9.282;2022-12-11T00:54:35;16.90;;;15.10;;
1366;SDS011;16877;48.810;9.282;2022-12-11T00:57:02;17.07;;;15.37;;
1366;SDS011;16877;48.810;9.282;2022-12-11T00:59:36;15.17;;;13.63;;
1366;SDS011;16877;48.810;9.282;2022-12-11T01:02:03;15.07;;;13.63;;
1366;SDS011;16877;48.810;9.282;2022-12-11T01:04:30;14.40;;;13.10;;
1366;SDS011;16877;48.810;9.282;2022-12-11T01:07:00;16.83;;;14.50;;
1366;SDS011;16877;48.810;9.282;2022-12-11T01:09:27;15.67;;;14.17;;
1366;SDS011;16877;48.810;9.282;2022-12-11T01:12:12;17.33;;;14.70;;
1366;SDS011;16877;48.810;9.282;2022-12-11T01:14:42;15.50;;;14.00;;
1366;SDS011;16877;48.810;9.282;2022-12-11T01:17:09;15.60;;;14.10;;
1366;SDS011;16877;48.810;9.282;2022-12-11T01:19:37;15.80;;;14.17;;
1366;SDS011;16877;48.810;9.282;2022-12-11T01:22:07;15.63;;;14.03;;
1366;SDS011;16877;48.810;9.282;2022-12-11T01:24:35;15.23;;;13.83;;
1366;SDS011;16877;48.810;9.282;2022-12-11T01:27:03;16.00;;;14.30;;
1366;SDS011;16877;48.810;9.282;2022-12-11T01:29:31;17.03;;;15.23;;
1366;SDS011;16877;48.810;9.282;2022-12-11T01:32:01;17.17;;;15.40;;
1366;SDS011;16877;48.810;9.282;2022-12-11T01:34:28;14.83;;;13.20;;
1366;SDS011;16877;48.810;9.282;2022-12-11T01:36:57;14.00;;;12.63;;
1366;SDS011;16877;48.810;9.282;2022-12-11T01:39:25;14.83;;;13.33;;
1366;SDS011;16877;48.810;9.282;2022-12-11T01:41:55;15.13;;;13.70;;
1366;SDS011;16877;48.810;9.282;2022-12-11T01:47:29;16.37;;;14.03;;
1366;SDS011;16877;48.810;9.282;2022-12-11T01:49:57;13.70;;;12.13;;
1366;SDS011;16877;48.810;9.282;2022-12-11T01:52:26;15.57;;;13.97;;
1366;SDS011;16877;48.810;9.282;2022-12-11T01:54:54;14.83;;;12.70;;
1366;SDS011;16877;48.810;9.282;2022-12-11T01:57:22;15.00;;;13.50;;
1366;SDS011;16877;48.810;9.282;2022-12-11T01:59:53;14.77;;;13.27;;
1366;SDS011;16877;48.810;9.282;2022-12-11T02:02:23;14.47;;;13.03;;
1366;SDS011;16877;48.810;9.282;2022-12-11T02:04:55;14.33;;;12.93;;
1366;SDS011;16877;48.810;9.282;2022-12-11T02:07:24;13.80;;;12.10;;
1366;SDS011;16877;48.810;9.282;2022-12-11T02:09:53;15.60;;;13.90;;
1366;SDS011;16877;48.810;9.282;2022-12-11T02:12:22;11.63;;;10.43;;
1366;SDS011;16877;48.810;9.282;2022-12-11T02:14:55;13.43;;;12.07;;
1366;SDS011;16877;48.810;9.282;2022-12-11T02:17:28;14.10;;;12.60;;
1366;SDS011;16877;48.810;9.282;2022-12-11T02:20:11;14.30;;;12.90;;
1366;SDS011;16877;48.810;9.282;2022-12-11T02:22:52;13.77;;;12.37;;
1366;SDS011;16877;48.810;9.282;2022-12-11T02:25:29;13.83;;;12.40;;
1366;SDS011;16877;48.810;9.282;2022-12-11T02:28:07;13.20;;;11.90;;
1366;SDS011;16877;48.810;9.282;2022-12-11T02:30:42;13.83;;;12.43;;
1366;SDS011;16877;48.810;9.282;2022-12-11T02:33:14;13.33;;;12.03;;
1366;SDS011;16877;48.810;9.282;2022-12-11T02:35:45;13.10;;;11.70;;
1366;SDS011;16877;48.810;9.282;2022-12-11T02:38:15;12.10;;;10.90;;
1366;SDS011;16877;48.810;9.282;2022-12-11T02:40:47;11.17;;;10.07;;
1366;SDS011;16877;48.810;9.282;2022-12-11T02:43:19;11.33;;;10.13;;
1366;SDS011;16877;48.810;9.282;2022-12-11T02:45:56;13.10;;;11.80;;
1366;SDS011;16877;48.810;9.282;2022-12-11T02:48:25;12.70;;;11.50;;
1366;SDS011;16877;48.810;9.282;2022-12-11T02:50:54;12.53;;;11.33;;
1366;SDS011;16877;48.810;9.282;2022-12-11T02:53:28;12.70;;;11.50;;
1366;SDS011;16877;48.810;9.282;2022-12-11T02:55:58;13.00;;;11.60;;
1366;SDS011;16877;48.810;9.282;2022-12-11T02:58:31;13.27;;;11.97;;
1366;SDS011;16877;48.810;9.282;2022-12-11T03:00:59;12.50;;;11.13;;
1366;SDS011;16877;48.810;9.282;2022-12-11T03:03:31;13.57;;;12.27;;
1366;SDS011;16877;48.810;9.282;2022-12-11T03:05:59;13.10;;;11.80;;
1366;SDS011;16877;48.810;9.282;2022-12-11T03:08:28;12.57;;;11.27;;
1366;SDS011;16877;48.810;9.282;2022-12-11T03:10:56;13.60;;;12.20;;
1366;SDS011;16877;48.810;9.282;2022-12-11T03:13:23;14.20;;;12.80;;
1366;SDS011;16877;48.810;9.282;2022-12-11T03:15:55;12.40;;;11.20;;
1366;SDS011;16877;48.810;9.282;2022-12-11T03:18:33;14.00;;;12.60;;
1366;SDS011;16877;48.810;9.282;2022-12-11T03:21:05;12.23;;;11.03;;
1366;SDS011;16877;48.810;9.282;2022-12-11T03:23:40;13.67;;;12.27;;
1366;SDS011;16877;48.810;9.282;2022-12-11T03:26:15;13.13;;;11.87;;
1366;SDS011;16877;48.810;9.282;2022-12-11T03:28:45;13.07;;;11.77;;
1366;SDS011;16877;48.810;9.282;2022-12-11T03:31:19;13.37;;;12.07;;
1366;SDS011;16877;48.810;9.282;2022-12-11T03:33:52;13.10;;;11.80;;
1366;SDS011;16877;48.810;9.282;2022-12-11T03:36:23;13.13;;;11.90;;
1366;SDS011;16877;48.810;9.282;2022-12-11T03:39:00;13.60;;;12.30;;
1366;SDS011;16877;48.810;9.282;2022-12-11T03:41:33;13.40;;;12.10;;
1366;SDS011;16877;48.810;9.282;2022-12-11T03:44:04;13.33;;;12.03;;
1366;SDS011;16877;48.810;9.282;2022-12-11T03:46:35;14.60;;;13.20;;
1366;SDS011;16877;48.810;9.282;2022-12-11T03:49:06;13.90;;;12.53;;
1366;SDS011;16877;48.810;9.282;2022-12-11T03:51:39;14.87;;;13.27;;
1366;SDS011;16877;48.810;9.282;2022-12-11T03:54:08;14.93;;;13.43;;
1366;SDS011;16877;48.810;9.282;2022-12-11T03:56:41;13.90;;;12.63;;
1366;SDS011;16877;48.810;9.282;2022-12-11T03:59:10;14.20;;;12.77;;
1366;SDS011;16877;48.810;9.282;2022-12-11T04:01:40;15.70;;;14.13;;
1366;SDS011;16877;48.810;9.282;2022-12-11T04:04:08;14.50;;;13.07;;
1366;SDS011;16877;48.810;9.282;2022-12-11T04:06:36;15.30;;;13.83;;
1366;SDS011;16877;48.810;9.282;2022-12-11T04:09:05;16.30;;;14.80;;
1366;SDS011;16877;48.810;9.282;2022-12-11T04:11:33;15.20;;;13.60;;
1366;SDS011;16877;48.810;9.282;2022-12-11T04:14:01;16.73;;;15.10;;
1366;SDS011;16877;48.810;9.282;2022-12-11T04:16:47;14.87;;;13.37;;
1366;SDS011;16877;48.810;9.282;2022-12-11T04:19:15;15.00;;;13.60;;
1366;SDS011;16877;48.810;9.282;2022-12-11T04:21:59;15.20;;;13.63;;
1366;SDS011;16877;48.810;9.282;2022-12-11T04:24:52;13.20;;;11.90;;
1366;SDS011;16877;48.810;9.282;2022-12-11T04:27:21;14.00;;;12.60;;
1366;SDS011;16877;48.810;9.282;2022-12-11T04:30:06;13.73;;;12.30;;
1366;SDS011;16877;48.810;9.282;2022-12-11T04:32:37;13.87;;;12.57;;
1366;SDS011;16877;48.810;9.282;2022-12-11T04:35:05;13.60;;;12.30;;
1366;SDS011;16877;48.810;9.282;2022-12-11T04:37:33;14.50;;;13.10;;
1366;SDS011;16877;48.810;9.282;2022-12-11T04:40:01;15.47;;;13.97;;
1366;SDS011;16877;48.810;9.282;2022-12-11T04:42:29;14.20;;;12.80;;
1366;SDS011;16877;48.810;9.282;2022-12-11T04:45:00;13.90;;;12.60;;
1366;SDS011;16877;48.810;9.282;2022-12-11T04:47:28;14.43;;;13.03;;
1366;SDS011;16877;48.810;9.282;2022-12-11T04:49:59;15.30;;;13.80;;
1366;SDS011;16877;48.810;9.282;2022-12-11T04:52:28;14.90;;;13.50;;
1366;SDS011;16877;48.810;9.282;2022-12-11T04:54:55;16.13;;;14.53;;
1366;SDS011;16877;48.810;9.282;2022-12-11T04:57:24;13.77;;;12.47;;
1366;SDS011;16877;48.810;9.282;2022-12-11T04:59:51;13.30;;;12.10;;
1366;SDS011;16877;48.810;9.282;2022-12-11T05:02:19;15.37;;;13.77;;
1366;SDS011;16877;48.810;9.282;2022-12-11T05:04:47;12.40;;;11.20;;
1366;SDS011;16877;48.810;9.282;2022-12-11T05:07:17;13.27;;;11.87;;
1366;SDS011;16877;48.810;9.282;2022-12-11T05:09:45;12.83;;;11.60;;
1366;SDS011;16877;48.810;9.282;2022-12-11T05:12:13;13.90;;;12.50;;
1366;SDS011;16877;48.810;9.282;2022-12-11T05:14:41;12.93;;;11.67;;
1366;SDS011;16877;48.810;9.282;2022-12-11T05:17:08;13.20;;;11.90;;
1366;SDS011;16877;48.810;9.282;2022-12-11T05:19:36;12.40;;;11.30;;
1366;SDS011;16877;48.810;9.282;2022-12-11T05:22:04;14.13;;;12.77;;
1366;SDS011;16877;48.810;9.282;2022-12-11T05:24:34;14.30;;;12.77;;
1366;SDS011;16877;48.810;9.282;2022-12-11T05:27:01;12.93;;;11.63;;
1366;SDS011;16877;48.810;9.282;2022-12-11T05:29:29;13.33;;;11.80;;
1366;SDS011;16877;48.810;9.282;2022-12-11T05:31:59;12.63;;;11.33;;
1366;SDS011;16877;48.810;9.282;2022-12-11T05:34:28;13.60;;;10.77;;
1366;SDS011;16877;48.810;9.282;2022-12-11T05:36:57;13.20;;;11.87;;
1366;SDS011;16877;48.810;9.282;2022-12-11T05:39:25;11.73;;;10.63;;
1366;SDS011;16877;48.810;9.282;2022-12-11T05:41:55;11.63;;;10.43;;
1366;SDS011;16877;48.810;9.282;2022-12-11T05:44:23;11.77;;;10.67;;
1366;SDS011;16877;48.810;9.282;2022-12-11T05:46:51;12.23;;;11.03;;
1366;SDS011;16877;48.810;9.282;2022-12-11T05:49:18;11.97;;;10.70;;
1366;SDS011;16877;48.810;9.282;2022-12-11T05:51:47;12.17;;;10.70;;
1366;SDS011;16877;48.810;9.282;2022-12-11T05:54:16;12.17;;;10.97;;
1366;SDS011;16877;48.810;9.282;2022-12-11T05:56:43;12.67;;;11.47;;
1366;SDS011;16877;48.810;9.282;2022-12-11T05:59:12;13.87;;;12.40;;
1366;SDS011;16877;48.810;9.282;2022-12-11T06:01:40;13.70;;;12.40;;
1366;SDS011;16877;48.810;9.282;2022-12-11T06:04:10;14.53;;;13.13;;
1366;SDS011;16877;48.810;9.282;2022-12-11T06:06:38;15.07;;;13.57;;
1366;SDS011;16877;48.810;9.282;2022-12-11T06:09:10;16.40;;;14.80;;
1366;SDS011;16877;48.810;9.282;2022-12-11T06:11:41;15.23;;;13.70;;
1366;SDS011;16877;48.810;9.282;2022-12-11T06:14:09;15.90;;;14.30;;
1366;SDS011;16877;48.810;9.282;2022-12-11T06:16:38;16.60;;;14.90;;
1366;SDS011;16877;48.810;9.282;2022-12-11T06:19:06;16.63;;;14.90;;
1366;SDS011;16877;48.810;9.282;2022-12-11T06:21:38;16.17;;;14.53;;
1366;SDS011;16877;48.810;9.282;2022-12-11T06:24:08;16.43;;;14.77;;
1366;SDS011;16877;48.810;9.282;2022-12-11T06:26:36;17.60;;;15.87;;
1366;SDS011;16877;48.810;9.282;2022-12-11T06:29:04;17.90;;;16.10;;
1366;SDS011;16877;48.810;9.282;2022-12-11T06:31:33;17.80;;;16.00;;
1366;SDS011;16877;48.810;9.282;2022-12-11T06:34:01;18.63;;;16.77;;
1366;SDS011;16877;48.810;9.282;2022-12-11T06:36:30;17.83;;;16.13;;
1366;SDS011;16877;48.810;9.282;2022-12-11T06:38:57;17.57;;;15.83;;
1366;SDS011;16877;48.810;9.282;2022-12-11T06:41:24;17.67;;;15.83;;
1366;SDS011;16877;48.810;9.282;2022-12-11T06:43:53;17.93;;;16.23;;
1366;SDS011;16877;48.810;9.282;2022-12-11T06:46:21;18.60;;;16.90;;
1366;SDS011;16877;48.810;9.282;2022-12-11T06:48:52;18.90;;;17.10;;
1366;SDS011;16877;48.810;9.282;2022-12-11T06:51:20;18.83;;;17.00;;
1366;SDS011;16877;48.810;9.282;2022-12-11T06:53:49;18.53;;;16.60;;
1366;SDS011;16877;48.810;9.282;2022-12-11T06:56:17;19.70;;;17.70;;
1366;SDS011;16877;48.810;9.282;2022-12-11T06:58:45;20.03;;;18.13;;
1366;SDS011;16877;48.810;9.282;2022-12-11T07:01:14;19.07;;;17.10;;
1366;SDS011;16877;48.810;9.282;2022-12-11T07:03:44;19.80;;;17.80;;
1366;SDS011;16877;48.810;9.282;2022-12-11T07:06:13;19.23;;;17.23;;
1366;SDS011;16877;48.810;9.282;2022-12-11T07:08:41;19.17;;;17.27;;
1366;SDS011;16877;48.810;9.282;2022-12-11T07:11:10;19.20;;;17.20;;
1366;SDS011;16877;48.810;9.282;2022-12-11T07:13:40;19.73;;;17.63;;
1366;SDS011;16877;48.810;9.282;2022-12-11T07:16:08;18.53;;;16.63;;
1366;SDS011;16877;48.810;9.282;2022-12-11T07:18:36;17.60;;;15.90;;
1366;SDS011;16877;48.810;9.282;2022-12-11T07:21:04;20.90;;;18.80;;
1366;SDS011;16877;48.810;9.282;2022-12-11T07:23:34;21.60;;;19.27;;
1366;SDS011;16877;48.810;9.282;2022-12-11T07:26:03;18.70;;;16.73;;
1366;SDS011;16877;48.810;9.282;2022-12-11T07:28:31;19.23;;;17.33;;
1366;SDS011;16877;48.810;9.282;2022-12-11T07:30:59;20.37;;;18.30;;
1366;SDS011;16877;48.810;9.282;2022-12-11T07:33:30;18.67;;;16.77;;
1366;SDS011;16877;48.810;9.282;2022-12-11T07:35:59;16.47;;;14.83;;
1366;SDS011;16877;48.810;9.282;2022-12-11T07:38:27;16.90;;;15.23;;
1366;SDS011;16877;48.810;9.282;2022-12-11T07:40:56;15.70;;;14.20;;
1366;SDS011;16877;48.810;9.282;2022-12-11T07:43:30;15.57;;;13.97;;
1366;SDS011;16877;48.810;9.282;2022-12-11T07:45:59;14.87;;;13.37;;
1366;SDS011;16877;48.810;9.282;2022-12-11T07:48:27;18.00;;;16.00;;
1366;SDS011;16877;48.810;9.282;2022-12-11T07:50:54;15.93;;;14.33;;
1366;SDS011;16877;48.810;9.282;2022-12-11T07:53:22;16.77;;;15.07;;
1366;SDS011;16877;48.810;9.282;2022-12-11T07:55:50;16.80;;;15.07;;
1366;SDS011;16877;48.810;9.282;2022-12-11T07:58:23;16.57;;;14.83;;
1366;SDS011;16877;48.810;9.282;2022-12-11T08:00:52;18.00;;;16.23;;
1366;SDS011;16877;48.810;9.282;2022-12-11T08:03:25;20.47;;;18.37;;
1366;SDS011;16877;48.810;9.282;2022-12-11T08:06:07;17.97;;;16.07;;
1366;SDS011;16877;48.810;9.282;2022-12-11T08:08:36;17.30;;;15.60;;
1366;SDS011;16877;48.810;9.282;2022-12-11T08:11:06;18.63;;;16.87;;
1366;SDS011;16877;48.810;9.282;2022-12-11T08:13:38;18.13;;;16.33;;
1366;SDS011;16877;48.810;9.282;2022-12-11T08:16:07;19.27;;;17.30;;
1366;SDS011;16877;48.810;9.282;2022-12-11T08:18:37;17.63;;;15.83;;
1366;SDS011;16877;48.810;9.282;2022-12-11T08:21:04;17.13;;;15.40;;
1366;SDS011;16877;48.810;9.282;2022-12-11T08:23:35;19.73;;;17.83;;
1366;SDS011;16877;48.810;9.282;2022-12-11T08:26:05;21.63;;;19.47;;
1366;SDS011;16877;48.810;9.282;2022-12-11T08:28:34;20.87;;;18.70;;
1366;SDS011;16877;48.810;9.282;2022-12-11T08:31:05;18.77;;;16.87;;
1366;SDS011;16877;48.810;9.282;2022-12-11T08:33:35;20.20;;;18.20;;
1366;SDS011;16877;48.810;9.282;2022-12-11T08:36:03;19.20;;;17.30;;
1366;SDS011;16877;48.810;9.282;2022-12-11T08:38:34;19.20;;;17.33;;
1366;SDS011;16877;48.810;9.282;2022-12-11T08:41:11;19.60;;;17.50;;
1366;SDS011;16877;48.810;9.282;2022-12-11T08:43:42;21.43;;;19.33;;
1366;SDS011;16877;48.810;9.282;2022-12-11T08:46:13;18.53;;;16.73;;
1366;SDS011;16877;48.810;9.282;2022-12-11T08:48:42;18.43;;;16.67;;
1366;SDS011;16877;48.810;9.282;2022-12-11T08:51:11;17.57;;;15.87;;
1366;SDS011;16877;48.810;9.282;2022-12-11T08:53:41;18.47;;;16.47;;
1366;SDS011;16877;48.810;9.282;2022-12-11T08:56:09;19.27;;;17.37;;
1366;SDS011;16877;48.810;9.282;2022-12-11T08:58:40;21.27;;;19.03;;
1366;SDS011;16877;48.810;9.282;2022-12-11T09:01:08;19.50;;;17.50;;
1366;SDS011;16877;48.810;9.282;2022-12-11T09:03:39;21.10;;;19.00;;
1366;SDS011;16877;48.810;9.282;2022-12-11T09:06:19;19.23;;;17.10;;
1366;SDS011;16877;48.810;9.282;2022-12-11T09:08:49;18.43;;;16.50;;
1366;SDS011;16877;48.810;9.282;2022-12-11T09:11:19;18.73;;;16.80;;
1366;SDS011;16877;48.810;9.282;2022-12-11T09:13:50;18.50;;;16.67;;
1366;SDS011;16877;48.810;9.282;2022-12-11T09:16:26;18.60;;;16.70;;
1366;SDS011;16877;48.810;9.282;2022-12-11T09:19:00;16.97;;;15.27;;
1366;SDS011;16877;48.810;9.282;2022-12-11T09:21:29;19.97;;;17.33;;
1366;SDS011;16877;48.810;9.282;2022-12-11T09:23:57;20.77;;;18.67;;
1366;SDS011;16877;48.810;9.282;2022-12-11T09:26:28;19.90;;;16.83;;
1366;SDS011;16877;48.810;9.282;2022-12-11T09:28:57;18.37;;;16.57;;
1366;SDS011;16877;48.810;9.282;2022-12-11T09:31:28;19.50;;;17.60;;
1366;SDS011;16877;48.810;9.282;2022-12-11T09:33:59;22.17;;;19.93;;
1366;SDS011;16877;48.810;9.282;2022-12-11T09:36:31;18.77;;;16.97;;
1366;SDS011;16877;48.810;9.282;2022-12-11T09:39:04;19.57;;;17.53;;
1366;SDS011;16877;48.810;9.282;2022-12-11T09:41:37;19.10;;;17.40;;
1366;SDS011;16877;48.810;9.282;2022-12-11T09:44:14;18.43;;;16.50;;
1366;SDS011;16877;48.810;9.282;2022-12-11T09:46:45;18.60;;;16.50;;
1366;SDS011;16877;48.810;9.282;2022-12-11T09:49:30;17.87;;;16.10;;
1366;SDS011;16877;48.810;9.282;2022-12-11T09:52:05;16.53;;;14.83;;
1366;SDS011;16877;48.810;9.282;2022-12-11T09:54:39;16.50;;;14.90;;
1366;SDS011;16877;48.810;9.282;2022-12-11T09:57:13;17.30;;;15.70;;
1366;SDS011;16877;48.810;9.282;2022-12-11T10:00:04;16.80;;;15.00;;
1366;SDS011;16877;48.810;9.282;2022-12-11T10:03:16;14.00;;;12.70;;
1366;SDS011;16877;48.810;9.282;2022-12-11T10:06:05;18.47;;;15.83;;
1366;SDS011;16877;48.810;9.282;2022-12-11T10:08:42;12.77;;;11.47;;
1366;SDS011;16877;48.810;9.282;2022-12-11T10:11:30;12.57;;;11.37;;
1366;SDS011;16877;48.810;9.282;2022-12-11T10:14:18;14.77;;;13.27;;
1366;SDS011;16877;48.810;9.282;2022-12-11T10:16:57;14.70;;;13.20;;
1366;SDS011;16877;48.810;9.282;2022-12-11T10:19:33;14.10;;;12.70;;
1366;SDS011;16877;48.810;9.282;2022-12-11T10:22:07;17.43;;;15.63;;
1366;SDS011;16877;48.810;9.282;2022-12-11T10:24:42;16.60;;;14.97;;
1366;SDS011;16877;48.810;9.282;2022-12-11T10:27:17;16.07;;;14.37;;
1366;SDS011;16877;48.810;9.282;2022-12-11T10:29:51;14.90;;;12.80;;
1366;SDS011;16877;48.810;9.282;2022-12-11T10:32:24;14.47;;;12.93;;
1366;SDS011;16877;48.810;9.282;2022-12-11T10:35:01;13.80;;;12.40;;
1366;SDS011;16877;48.810;9.282;2022-12-11T10:37:35;14.50;;;12.87;;
1366;SDS011;16877;48.810;9.282;2022-12-11T10:40:04;15.43;;;12.80;;
1366;SDS011;16877;48.810;9.282;2022-12-11T10:42:35;12.60;;;11.33;;
1366;SDS011;16877;48.810;9.282;2022-12-11T10:45:04;12.40;;;11.10;;
1366;SDS011;16877;48.810;9.282;2022-12-11T10:47:34;13.90;;;12.50;;
1366;SDS011;16877;48.810;9.282;2022-12-11T10:50:03;16.40;;;12.43;;
1366;SDS011;16877;48.810;9.282;2022-12-11T10:52:46;15.73;;;13.70;;
1366;SDS011;16877;48.810;9.282;2022-12-11T10:55:16;14.83;;;13.37;;
1366;SDS011;16877;48.810;9.282;2022-12-11T10:57:52;14.53;;;13.13;;
1366;SDS011;16877;48.810;9.282;2022-12-11T11:00:29;15.47;;;13.97;;
1366;SDS011;16877;48.810;9.282;2022-12-11T11:03:01;14.37;;;12.87;;
1366;SDS011;16877;48.810;9.282;2022-12-11T11:05:34;13.20;;;11.80;;
1366;SDS011;16877;48.810;9.282;2022-12-11T11:08:13;14.77;;;13.10;;
1366;SDS011;16877;48.810;9.282;2022-12-11T11:10:53;14.17;;;12.80;;
1366;SDS011;16877;48.810;9.282;2022-12-11T11:13:23;14.27;;;12.90;;
1366;SDS011;16877;48.810;9.282;2022-12-11T11:15:57;14.33;;;12.90;;
1366;SDS011;16877;48.810;9.282;2022-12-11T11:18:36;13.57;;;12.13;;
1366;SDS011;16877;48.810;9.282;2022-12-11T11:21:14;15.63;;;13.80;;
1366;SDS011;16877;48.810;9.282;2022-12-11T11:23:45;14.90;;;13.30;;
1366;SDS011;16877;48.810;9.282;2022-12-11T11:26:12;15.47;;;13.50;;
1366;SDS011;16877;48.810;9.282;2022-12-11T11:28:46;14.70;;;13.20;;
1366;SDS011;16877;48.810;9.282;2022-12-11T11:31:16;14.00;;;12.60;;
1366;SDS011;16877;48.810;9.282;2022-12-11T11:33:48;14.23;;;12.47;;
1366;SDS011;16877;48.810;9.282;2022-12-11T11:36:21;13.57;;;12.23;;
1366;SDS011;16877;48.810;9.282;2022-12-11T11:39:09;13.70;;;12.30;;
1366;SDS011;16877;48.810;9.282;2022-12-11T11:41:49;12.00;;;10.63;;
1366;SDS011;16877;48.810;9.282;2022-12-11T11:44:30;13.97;;;12.57;;
1366;SDS011;16877;48.810;9.282;2022-12-11T11:47:09;13.73;;;12.33;;
1366;SDS011;16877;48.810;9.282;2022-12-11T11:49:44;14.83;;;13.20;;
1366;SDS011;16877;48.810;9.282;2022-12-11T11:52:16;14.23;;;12.70;;
1366;SDS011;16877;48.810;9.282;2022-12-11T11:57:34;14.43;;;12.97;;
1366;SDS011;16877;48.810;9.282;2022-12-11T12:00:13;14.23;;;12.83;;
1366;SDS011;16877;48.810;9.282;2022-12-11T12:02:44;14.83;;;13.27;;
1366;SDS011;16877;48.810;9.282;2022-12-11T12:05:21;13.90;;;12.40;;
1366;SDS011;16877;48.810;9.282;2022-12-11T12:07:56;14.23;;;12.77;;
1366;SDS011;16877;48.810;9.282;2022-12-11T12:10:39;16.23;;;14.63;;
1366;SDS011;16877;48.810;9.282;2022-12-11T12:13:19;13.73;;;12.33;;
1366;SDS011;16877;48.810;9.282;2022-12-11T12:15:58;15.60;;;14.00;;
1366;SDS011;16877;48.810;9.282;2022-12-11T12:18:31;13.63;;;12.20;;
1366;SDS011;16877;48.810;9.282;2022-12-11T12:21:08;14.50;;;13.00;;
1366;SDS011;16877;48.810;9.282;2022-12-11T12:23:56;13.80;;;12.50;;
1366;SDS011;16877;48.810;9.282;2022-12-11T12:26:40;14.73;;;13.23;;
1366;SDS011;16877;48.810;9.282;2022-12-11T12:29:17;13.83;;;12.33;;
1366;SDS011;16877;48.810;9.282;2022-12-11T12:31:55;14.37;;;12.60;;
1366;SDS011;16877;48.810;9.282;2022-12-11T12:34:38;15.30;;;13.40;;
1366;SDS011;16877;48.810;9.282;2022-12-11T12:37:16;15.70;;;12.80;;
1366;SDS011;16877;48.810;9.282;2022-12-11T12:40:06;13.27;;;11.93;;
1366;SDS011;16877;48.810;9.282;2022-12-11T12:42:48;14.93;;;13.43;;
1366;SDS011;16877;48.810;9.282;2022-12-11T12:45:38;15.00;;;12.87;;
1366;SDS011;16877;48.810;9.282;2022-12-11T12:48:19;14.30;;;12.73;;
1366;SDS011;16877;48.810;9.282;2022-12-11T12:50:51;14.10;;;12.73;;
1366;SDS011;16877;48.810;9.282;2022-12-11T12:53:22;16.13;;;13.53;;
1366;SDS011;16877;48.810;9.282;2022-12-11T12:56:00;14.70;;;13.20;;
1366;SDS011;16877;48.810;9.282;2022-12-11T12:58:40;15.57;;;13.97;;
1366;SDS011;16877;48.810;9.282;2022-12-11T13:01:09;15.00;;;13.57;;
1366;SDS011;16877;48.810;9.282;2022-12-11T13:03:49;18.47;;;16.10;;
1366;SDS011;16877;48.810;9.282;2022-12-11T13:06:27;16.07;;;14.37;;
1366;SDS011;16877;48.810;9.282;2022-12-11T13:11:50;16.10;;;14.50;;
1366;SDS011;16877;48.810;9.282;2022-12-11T13:14:40;15.70;;;14.10;;
1366;SDS011;16877;48.810;9.282;2022-12-11T13:17:25;15.40;;;13.40;;
1366;SDS011;16877;48.810;9.282;2022-12-11T13:20:13;15.20;;;13.37;;
1366;SDS011;16877;48.810;9.282;2022-12-11T13:25:47;17.17;;;15.37;;
1366;SDS011;16877;48.810;9.282;2022-12-11T13:28:23;17.43;;;15.63;;
1366;SDS011;16877;48.810;9.282;2022-12-11T13:31:00;16.27;;;14.20;;
1366;SDS011;16877;48.810;9.282;2022-12-11T13:33:40;14.90;;;13.40;;
1366;SDS011;16877;48.810;9.282;2022-12-11T13:36:22;15.77;;;14.07;;
1366;SDS011;16877;48.810;9.282;2022-12-11T13:38:57;16.83;;;14.77;;
1366;SDS011;16877;48.810;9.282;2022-12-11T13:41:28;17.10;;;15.30;;
1366;SDS011;16877;48.810;9.282;2022-12-11T13:43:58;17.73;;;15.37;;
1366;SDS011;16877;48.810;9.282;2022-12-11T13:46:29;15.30;;;13.80;;
1366;SDS011;16877;48.810;9.282;2022-12-11T13:49:16;15.43;;;13.90;;
1366;SDS011;16877;48.810;9.282;2022-12-11T13:51:50;18.80;;;16.80;;
1366;SDS011;16877;48.810;9.282;2022-12-11T13:54:18;21.10;;;16.90;;
1366;SDS011;16877;48.810;9.282;2022-12-11T13:56:58;18.47;;;16.50;;
1366;SDS011;16877;48.810;9.282;2022-12-11T13:59:33;16.80;;;15.10;;
1366;SDS011;16877;48.810;9.282;2022-12-11T14:02:10;17.47;;;15.67;;
1366;SDS011;16877;48.810;9.282;2022-12-11T14:04:42;19.03;;;16.93;;
1366;SDS011;16877;48.810;9.282;2022-12-11T14:07:14;18.93;;;16.93;;
1366;SDS011;16877;48.810;9.282;2022-12-11T14:09:46;19.23;;;17.07;;
1366;SDS011;16877;48.810;9.282;2022-12-11T14:12:14;20.60;;;17.93;;
1366;SDS011;16877;48.810;9.282;2022-12-11T14:14:44;25.63;;;17.97;;
1366;SDS011;16877;48.810;9.282;2022-12-11T14:17:23;19.47;;;17.10;;
1366;SDS011;16877;48.810;9.282;2022-12-11T14:19:55;17.27;;;15.17;;
1366;SDS011;16877;48.810;9.282;2022-12-11T14:22:26;18.47;;;16.60;;
1366;SDS011;16877;48.810;9.282;2022-12-11T14:24:57;19.73;;;17.27;;
1366;SDS011;16877;48.810;9.282;2022-12-11T14:27:28;19.13;;;17.03;;
1366;SDS011;16877;48.810;9.282;2022-12-11T14:30:07;18.30;;;16.40;;
1366;SDS011;16877;48.810;9.282;2022-12-11T14:32:56;20.10;;;18.00;;
1366;SDS011;16877;48.810;9.282;2022-12-11T14:35:27;20.93;;;18.70;;
1366;SDS011;16877;48.810;9.282;2022-12-11T14:38:15;22.03;;;19.17;;
1366;SDS011;16877;48.810;9.282;2022-12-11T14:40:48;18.17;;;15.97;;
1366;SDS011;16877;48.810;9.282;2022-12-11T14:43:21;22.80;;;19.77;;
1366;SDS011;16877;48.810;9.282;2022-12-11T14:45:54;25.20;;;19.87;;
1366;SDS011;16877;48.810;9.282;2022-12-11T14:48:29;25.77;;;18.80;;
1366;SDS011;16877;48.810;9.282;2022-12-11T14:51:02;22.10;;;18.87;;
1366;SDS011;16877;48.810;9.282;2022-12-11T14:53:33;19.87;;;17.87;;
1366;SDS011;16877;48.810;9.282;2022-12-11T14:56:07;23.10;;;19.07;;
1366;SDS011;16877;48.810;9.282;2022-12-11T14:58:42;25.03;;;19.80;;
1366;SDS011;16877;48.810;9.282;2022-12-11T15:01:22;20.13;;;17.93;;
1366;SDS011;16877;48.810;9.282;2022-12-11T15:04:03;22.60;;;20.20;;
1366;SDS011;16877;48.810;9.282;2022-12-11T15:06:41;22.30;;;19.00;;
1366;SDS011;16877;48.810;9.282;2022-12-11T15:09:35;23.30;;;18.53;;
1366;SDS011;16877;48.810;9.282;2022-12-11T15:12:07;23.03;;;19.90;;
1366;SDS011;16877;48.810;9.282;2022-12-11T15:14:45;23.20;;;20.03;;